Time;durP1;ratioP1;P1;durP2;ratioP2;P2;SDS_P1;SDS_P2;PMS_P1;PMS_P2;Temp;Humidity;BMP_temperature;BMP_pressure;BME280_temperature;BME280_humidity;BME280_pressure;Samples;Min_cycle;Max_cycle;Signal;HPM_P1;HPM_P2
2022/07/11 00:02:01;;;;;;;6.80;5.57;;;18.20;99.90;;;;;;5073687;28;20017;-58
2022/07/11 00:04:30;;;;;;;9.43;5.55;;;18.30;99.90;;;;;;5073482;28;20667;-58
2022/07/11 00:06:57;;;;;;;8.45;6.82;;;18.30;99.90;;;;;;5073624;28;20035;-58
2022/07/11 00:09:22;;;;;;;10.25;6.25;;;18.40;99.90;;;;;;5073430;28;20024;-58
2022/07/11 00:11:48;;;;;;;11.32;6.13;;;18.30;99.90;;;;;;5073228;28;20028;-58
2022/07/11 00:14:15;;;;;;;10.13;6.75;;;18.00;99.90;;;;;;5073306;28;20515;-59
2022/07/11 00:16:41;;;;;;;7.57;5.85;;;17.80;99.90;;;;;;5073209;28;20021;-58
2022/07/11 00:19:06;;;;;;;10.93;6.57;;;17.70;99.90;;;;;;5073462;28;20032;-57
2022/07/11 00:21:34;;;;;;;11.73;6.95;;;17.60;99.90;;;;;;5073127;28;20104;-58
2022/07/11 00:24:00;;;;;;;8.02;6.75;;;17.60;99.90;;;;;;5071663;28;20078;-58
2022/07/11 00:26:26;;;;;;;11.05;7.20;;;17.40;99.90;;;;;;5073573;28;20024;-60
2022/07/11 00:28:51;;;;;;;10.60;6.78;;;17.20;99.90;;;;;;5073441;28;20491;-58
2022/07/11 00:31:17;;;;;;;11.23;8.02;;;17.20;99.90;;;;;;5071485;28;20033;-58
2022/07/11 00:33:42;;;;;;;11.50;7.70;;;17.20;99.90;;;;;;5072991;28;20446;-59
2022/07/11 00:36:08;;;;;;;12.38;8.27;;;17.20;99.90;;;;;;5072689;28;20028;-58
2022/07/11 00:38:34;;;;;;;10.30;7.45;;;17.20;99.90;;;;;;5073056;28;20028;-58
2022/07/11 00:41:00;;;;;;;12.30;8.45;;;17.10;99.90;;;;;;5072678;28;20397;-58
2022/07/11 00:43:34;;;;;;;12.23;7.88;;;17.20;99.90;;;;;;5073005;28;20033;-58
2022/07/11 00:46:00;;;;;;;11.32;8.77;;;17.10;99.90;;;;;;5072551;28;20029;-58
2022/07/11 00:48:26;;;;;;;11.82;8.85;;;17.10;99.90;;;;;;5072703;28;20039;-62
2022/07/11 00:50:52;;;;;;;15.98;9.50;;;17.30;99.90;;;;;;5071311;28;20028;-57
2022/07/11 00:53:19;;;;;;;15.15;9.20;;;17.20;99.90;;;;;;5072425;28;20056;-57
2022/07/11 00:55:46;;;;;;;12.32;8.73;;;17.20;99.90;;;;;;5071167;28;20024;-58
2022/07/11 00:58:12;;;;;;;11.13;8.88;;;17.10;99.90;;;;;;5072115;28;20028;-58
2022/07/11 01:00:39;;;;;;;10.68;8.95;;;17.10;99.90;;;;;;5072690;28;20052;-57
2022/07/11 01:03:05;;;;;;;12.38;9.40;;;17.10;99.90;;;;;;5072365;28;20029;-57
2022/07/11 01:05:30;;;;;;;9.68;8.23;;;17.20;99.90;;;;;;5072117;28;20485;-58
2022/07/11 01:07:56;;;;;;;15.85;8.23;;;17.20;99.90;;;;;;5072241;28;20032;-57
2022/07/11 01:10:23;;;;;;;13.85;8.57;;;17.20;99.90;;;;;;5072263;28;20024;-57
2022/07/11 01:12:49;;;;;;;12.68;9.15;;;17.20;99.90;;;;;;5072084;28;20071;-57
2022/07/11 01:15:15;;;;;;;10.57;8.75;;;17.20;99.90;;;;;;5071639;28;20060;-57
2022/07/11 01:17:40;;;;;;;10.85;9.40;;;17.20;99.90;;;;;;5072151;28;20028;-58
2022/07/11 01:20:06;;;;;;;16.45;9.63;;;17.20;99.90;;;;;;5071801;28;20013;-60
2022/07/11 01:22:37;;;;;;;14.52;9.88;;;17.10;99.90;;;;;;5071858;28;20085;-58
2022/07/11 01:25:02;;;;;;;13.27;9.93;;;17.10;99.90;;;;;;5071820;28;20025;-58
2022/07/11 01:27:28;;;;;;;14.80;9.85;;;17.10;99.90;;;;;;5070577;28;20044;-58
2022/07/11 01:29:54;;;;;;;12.32;9.85;;;17.10;99.90;;;;;;5071930;28;20056;-59
2022/07/11 01:32:21;;;;;;;16.48;9.75;;;17.10;99.90;;;;;;5070381;28;20067;-58
2022/07/11 01:34:47;;;;;;;12.82;9.48;;;17.10;99.90;;;;;;5071614;28;20131;-58
2022/07/11 01:37:13;;;;;;;15.52;9.63;;;17.10;99.90;;;;;;5071611;28;20402;-59
2022/07/11 01:39:38;;;;;;;12.82;9.63;;;17.10;99.90;;;;;;5072093;28;20032;-58
2022/07/11 01:42:04;;;;;;;13.98;9.60;;;17.10;99.90;;;;;;5072073;28;20103;-58
2022/07/11 01:44:30;;;;;;;10.48;9.38;;;17.00;99.90;;;;;;5071532;28;20031;-59
2022/07/11 01:46:56;;;;;;;12.93;9.00;;;17.00;99.90;;;;;;5071584;28;20465;-57
2022/07/11 01:49:21;;;;;;;11.18;9.10;;;16.90;99.90;;;;;;5071795;28;20055;-58
2022/07/11 01:51:48;;;;;;;10.45;8.68;;;16.90;99.90;;;;;;5071064;28;20097;-58
2022/07/11 01:54:14;;;;;;;12.05;8.75;;;16.80;99.90;;;;;;5071386;28;20103;-58
2022/07/11 01:56:40;;;;;;;15.82;9.82;;;16.70;99.90;;;;;;5071364;28;20150;-59
2022/07/11 01:59:06;;;;;;;12.65;10.55;;;16.60;99.90;;;;;;5071617;28;20036;-60
2022/07/11 02:01:32;;;;;;;14.27;11.32;;;16.60;99.90;;;;;;5071490;28;20075;-58
2022/07/11 02:04:00;;;;;;;15.40;12.07;;;16.60;99.90;;;;;;5071272;28;20099;-58
2022/07/11 02:06:26;;;;;;;15.65;12.55;;;16.60;99.90;;;;;;5071932;28;20393;-57
2022/07/11 02:08:51;;;;;;;18.65;12.90;;;16.90;99.90;;;;;;5071397;28;20032;-58
2022/07/11 02:11:17;;;;;;;15.05;12.77;;;16.70;99.90;;;;;;5070256;28;20075;-58
2022/07/11 02:13:42;;;;;;;16.50;11.82;;;16.50;99.90;;;;;;5071423;28;20079;-57
2022/07/11 02:16:08;;;;;;;17.25;12.38;;;16.40;99.90;;;;;;5071308;28;20115;-57
2022/07/11 02:18:34;;;;;;;17.35;12.88;;;16.40;99.90;;;;;;5071347;28;20016;-58
2022/07/11 02:21:00;;;;;;;16.55;13.05;;;16.50;99.90;;;;;;5071100;28;20104;-57
2022/07/11 02:23:26;;;;;;;17.42;13.77;;;16.50;99.90;;;;;;5071113;28;20392;-58
2022/07/11 02:25:53;;;;;;;18.17;14.18;;;16.60;99.90;;;;;;5071111;28;20024;-58
2022/07/11 02:28:19;;;;;;;18.55;15.35;;;16.60;99.90;;;;;;5071274;28;20040;-58
2022/07/11 02:30:47;;;;;;;23.50;17.48;;;16.70;99.90;;;;;;5069576;28;20032;-57
2022/07/11 02:33:16;;;;;;;24.20;17.40;;;16.70;99.90;;;;;;5071138;28;20029;-58
2022/07/11 02:35:42;;;;;;;23.85;17.35;;;16.50;99.90;;;;;;5069826;28;20032;-58
2022/07/11 02:38:08;;;;;;;26.35;19.00;;;16.60;99.90;;;;;;5071259;28;20081;-58
2022/07/11 02:40:34;;;;;;;24.10;19.58;;;16.50;99.90;;;;;;5071104;28;20095;-58
2022/07/11 02:42:59;;;;;;;31.02;20.77;;;16.40;99.90;;;;;;5070764;28;20031;-58
2022/07/11 02:45:25;;;;;;;24.58;19.33;;;16.40;99.90;;;;;;5070793;28;20031;-58
2022/07/11 02:47:51;;;;;;;22.92;18.50;;;16.30;99.90;;;;;;5070905;28;20021;-59
2022/07/11 02:50:16;;;;;;;24.48;18.58;;;16.30;99.90;;;;;;5071145;28;20029;-58
2022/07/11 02:52:42;;;;;;;28.00;20.13;;;16.20;99.90;;;;;;5070864;28;20049;-58
2022/07/11 02:55:10;;;;;;;27.05;20.08;;;16.30;99.90;;;;;;5070412;28;20468;-58
2022/07/11 02:57:36;;;;;;;30.42;20.13;;;16.40;99.90;;;;;;5071304;28;20024;-58
2022/07/11 03:00:04;;;;;;;25.77;18.25;;;16.20;99.90;;;;;;5070668;28;20021;-58
2022/07/11 03:02:30;;;;;;;26.30;19.45;;;16.20;99.90;;;;;;5069276;28;20028;-64
2022/07/11 03:04:57;;;;;;;23.55;19.25;;;16.20;99.90;;;;;;5070657;28;20385;-58
2022/07/11 03:07:27;;;;;;;28.67;19.98;;;16.10;99.90;;;;;;5070314;28;20485;-58
2022/07/11 03:09:56;;;;;;;26.02;19.50;;;16.10;99.90;;;;;;5069318;28;20317;-58
2022/07/11 03:12:22;;;;;;;31.17;19.20;;;16.10;99.90;;;;;;5069158;28;20028;-58
2022/07/11 03:14:48;;;;;;;25.80;19.25;;;16.10;99.90;;;;;;5070484;28;20081;-58
2022/07/11 03:17:15;;;;;;;28.33;19.85;;;16.10;99.90;;;;;;5069018;28;20067;-58
2022/07/11 03:19:40;;;;;;;25.27;18.55;;;16.10;99.90;;;;;;5070467;28;20025;-58
2022/07/11 03:22:06;;;;;;;20.83;18.17;;;16.10;99.90;;;;;;5072164;28;20073;-58
2022/07/11 03:24:32;;;;;;;20.52;16.70;;;16.10;99.90;;;;;;5073867;28;20115;-58
2022/07/11 03:26:57;;;;;;;21.60;16.60;;;16.10;99.90;;;;;;5074076;28;20028;-58
2022/07/11 03:29:23;;;;;;;23.05;17.05;;;16.00;99.90;;;;;;5074124;28;20059;-58
2022/07/11 03:31:48;;;;;;;20.52;16.80;;;16.00;99.90;;;;;;5073841;28;20016;-58
2022/07/11 03:34:14;;;;;;;25.98;18.10;;;16.00;99.90;;;;;;5074198;28;20478;-59
2022/07/11 03:36:40;;;;;;;28.05;19.13;;;16.00;99.90;;;;;;5073744;28;20355;-58
2022/07/11 03:39:05;;;;;;;25.40;18.85;;;16.00;99.90;;;;;;5073947;28;20077;-58
2022/07/11 03:41:31;;;;;;;22.95;17.70;;;15.90;99.90;;;;;;5073992;28;20055;-58
2022/07/11 03:43:56;;;;;;;26.17;18.27;;;15.80;99.90;;;;;;5073747;28;20029;-58
2022/07/11 03:46:23;;;;;;;28.55;19.38;;;15.80;99.90;;;;;;5073715;28;20021;-58
2022/07/11 03:48:48;;;;;;;29.38;20.27;;;15.90;99.90;;;;;;5073922;28;20032;-58
2022/07/11 03:51:14;;;;;;;25.92;20.73;;;15.60;99.90;;;;;;5074028;28;20028;-58
2022/07/11 03:53:40;;;;;;;29.42;22.58;;;15.60;99.90;;;;;;5073647;28;20084;-59
2022/07/11 03:56:06;;;;;;;28.10;21.10;;;15.70;99.90;;;;;;5073598;28;20067;-57
2022/07/11 03:58:32;;;;;;;30.75;23.10;;;15.70;99.90;;;;;;5073709;28;20091;-58
2022/07/11 04:00:57;;;;;;;28.75;21.95;;;15.80;99.90;;;;;;5073463;28;20029;-58
2022/07/11 04:03:25;;;;;;;25.88;21.23;;;15.80;99.90;;;;;;5073903;28;20028;-58
2022/07/11 04:05:51;;;;;;;28.80;23.42;;;15.90;99.90;;;;;;5073750;28;20024;-58
2022/07/11 04:08:17;;;;;;;31.08;23.15;;;15.80;99.90;;;;;;5073815;28;20150;-58
2022/07/11 04:10:42;;;;;;;32.58;23.42;;;15.70;99.90;;;;;;5072231;28;20029;-58
2022/07/11 04:13:08;;;;;;;34.97;22.83;;;15.80;99.90;;;;;;5073651;28;20046;-58
2022/07/11 04:15:34;;;;;;;31.13;23.10;;;15.80;99.90;;;;;;5072353;28;20082;-58
2022/07/11 04:17:59;;;;;;;30.10;23.02;;;15.80;99.90;;;;;;5073674;28;20033;-58
2022/07/11 04:20:25;;;;;;;25.83;21.58;;;15.90;99.90;;;;;;5073555;28;20111;-59
2022/07/11 04:22:50;;;;;;;30.98;22.17;;;16.00;99.90;;;;;;5073354;28;20036;-58
2022/07/11 04:25:16;;;;;;;29.83;21.58;;;16.00;99.90;;;;;;5073061;28;20025;-58
2022/07/11 04:27:42;;;;;;;28.88;20.58;;;16.00;99.90;;;;;;5073633;28;20036;-59
2022/07/11 04:30:08;;;;;;;27.23;21.33;;;16.10;99.90;;;;;;5072995;28;20029;-58
2022/07/11 04:32:35;;;;;;;31.48;23.30;;;16.10;99.90;;;;;;5072404;28;20090;-58
2022/07/11 04:35:01;;;;;;;35.50;25.23;;;16.30;99.90;;;;;;5072347;28;20039;-58
2022/07/11 04:37:27;;;;;;;33.03;23.27;;;16.40;99.90;;;;;;5072834;28;20028;-58
2022/07/11 04:39:52;;;;;;;32.58;23.23;;;16.50;99.90;;;;;;5073325;28;20431;-58
2022/07/11 04:42:18;;;;;;;32.15;24.15;;;16.50;99.90;;;;;;5072999;28;20391;-58
2022/07/11 04:44:44;;;;;;;32.97;25.48;;;16.50;99.90;;;;;;5072883;28;20016;-58
2022/07/11 04:47:10;;;;;;;31.85;23.83;;;16.60;99.90;;;;;;5072417;28;20032;-58
2022/07/11 04:49:35;;;;;;;33.65;24.00;;;16.50;99.90;;;;;;5073176;28;20035;-59
2022/07/11 04:52:01;;;;;;;35.45;24.45;;;16.60;99.90;;;;;;5072624;28;20436;-59
2022/07/11 04:54:27;;;;;;;28.95;23.33;;;16.70;99.90;;;;;;5072928;28;20093;-59
2022/07/11 04:56:52;;;;;;;38.30;26.42;;;16.60;99.90;;;;;;5072661;28;20025;-59
2022/07/11 04:59:18;;;;;;;39.88;28.10;;;16.70;99.90;;;;;;5071426;28;20028;-58
2022/07/11 05:01:44;;;;;;;41.67;27.20;;;16.90;99.90;;;;;;5072323;28;20477;-58
2022/07/11 05:04:10;;;;;;;41.08;29.58;;;16.90;99.90;;;;;;5072508;28;20024;-58
2022/07/11 05:06:35;;;;;;;36.38;27.02;;;17.10;99.90;;;;;;5072688;28;20032;-58
2022/07/11 05:09:02;;;;;;;37.60;29.27;;;17.10;99.90;;;;;;5072571;28;20040;-58
2022/07/11 05:11:27;;;;;;;37.17;27.27;;;17.20;99.90;;;;;;5072371;28;20044;-59
2022/07/11 05:13:53;;;;;;;33.83;26.90;;;17.30;99.90;;;;;;5072198;28;20060;-59
2022/07/11 05:16:18;;;;;;;31.75;25.40;;;17.30;99.90;;;;;;5072088;28;20393;-58
2022/07/11 05:18:44;;;;;;;42.83;26.85;;;17.30;99.90;;;;;;5072367;28;20127;-58
2022/07/11 05:21:10;;;;;;;38.50;26.77;;;17.30;99.90;;;;;;5072240;28;20027;-58
2022/07/11 05:23:35;;;;;;;36.53;25.35;;;17.40;99.90;;;;;;5072430;28;20028;-59
2022/07/11 05:26:01;;;;;;;34.38;24.42;;;17.50;99.90;;;;;;5072114;28;20033;-58
2022/07/11 05:28:26;;;;;;;35.10;26.00;;;17.70;99.90;;;;;;5070816;28;20056;-58
2022/07/11 05:30:52;;;;;;;35.03;24.83;;;17.80;99.90;;;;;;5071992;28;20024;-58
2022/07/11 05:33:18;;;;;;;34.97;26.20;;;17.70;99.90;;;;;;5071963;28;20044;-58
2022/07/11 05:35:43;;;;;;;36.95;24.75;;;17.70;99.90;;;;;;5071719;28;20028;-59
2022/07/11 05:38:09;;;;;;;37.67;25.55;;;17.70;99.90;;;;;;5071531;28;20029;-58
2022/07/11 05:40:34;;;;;;;33.88;24.42;;;17.70;99.90;;;;;;5071783;28;20040;-58
2022/07/11 05:43:00;;;;;;;31.27;23.02;;;17.70;99.90;;;;;;5071326;28;20140;-59
2022/07/11 05:45:26;;;;;;;36.05;23.05;;;17.70;99.90;;;;;;5071322;28;20030;-58
2022/07/11 05:47:52;;;;;;;29.33;22.88;;;17.70;99.90;;;;;;5071245;28;20385;-58
2022/07/11 05:50:17;;;;;;;29.38;22.02;;;17.60;99.90;;;;;;5071297;28;20107;-59
2022/07/11 05:52:43;;;;;;;31.88;22.48;;;17.70;99.90;;;;;;5071248;28;20055;-58
2022/07/11 05:55:09;;;;;;;32.05;23.65;;;17.70;99.90;;;;;;5071026;28;20029;-58
2022/07/11 05:57:34;;;;;;;30.80;23.63;;;17.80;99.90;;;;;;5071309;28;20103;-58
2022/07/11 06:00:00;;;;;;;36.90;24.85;;;17.80;99.90;;;;;;5071280;28;20021;-58
2022/07/11 06:02:25;;;;;;;33.88;22.95;;;17.90;99.90;;;;;;5070826;28;20138;-58
2022/07/11 06:04:51;;;;;;;33.03;23.35;;;18.00;99.90;;;;;;5071398;28;20024;-59
2022/07/11 06:08:40;;;;;;;31.13;22.13;;;18.20;99.90;;;;;;5071004;28;20035;-59
2022/07/11 06:10:02;;;;;;;31.67;22.17;;;18.20;99.90;;;;;;5071064;28;20033;-56
2022/07/11 06:12:28;;;;;;;34.63;23.48;;;18.20;99.90;;;;;;5070785;28;20555;-56
2022/07/11 06:14:54;;;;;;;30.58;23.02;;;18.60;99.90;;;;;;5070990;28;20025;-56
2022/07/11 06:17:19;;;;;;;30.95;23.15;;;18.80;99.90;;;;;;5070870;28;20024;-59
2022/07/11 06:19:45;;;;;;;35.00;25.67;;;18.80;99.90;;;;;;5071320;28;20016;-58
2022/07/11 06:22:11;;;;;;;33.75;26.50;;;19.00;99.90;;;;;;5071186;28;20017;-58
2022/07/11 06:24:37;;;;;;;33.45;24.48;;;19.10;99.90;;;;;;5070794;28;20459;-58
2022/07/11 06:27:04;;;;;;;35.33;26.10;;;19.10;99.90;;;;;;5070905;28;20583;-58
2022/07/11 06:29:30;;;;;;;41.05;28.10;;;19.20;99.90;;;;;;5070899;28;20021;-57
2022/07/11 06:31:56;;;;;;;38.40;27.48;;;19.30;99.90;;;;;;5070668;28;20028;-58
2022/07/11 06:34:21;;;;;;;37.45;26.38;;;19.40;99.90;;;;;;5070846;28;20040;-59
2022/07/11 06:36:47;;;;;;;35.58;26.30;;;19.50;99.90;;;;;;5070572;28;20051;-58
2022/07/11 06:39:13;;;;;;;34.83;25.77;;;19.60;99.90;;;;;;5069365;28;20131;-58
2022/07/11 06:41:39;;;;;;;41.92;28.67;;;19.70;99.90;;;;;;5070791;28;20028;-58
2022/07/11 06:44:04;;;;;;;40.17;29.80;;;19.80;99.90;;;;;;5070410;28;20025;-58
2022/07/11 06:46:30;;;;;;;42.85;29.25;;;19.90;99.90;;;;;;5069224;28;20024;-58
2022/07/11 06:48:55;;;;;;;50.83;33.65;;;20.20;99.90;;;;;;5071079;28;20125;-59
2022/07/11 06:51:22;;;;;;;46.70;31.38;;;20.60;99.90;;;;;;5070921;28;20385;-59
2022/07/11 06:53:47;;;;;;;44.60;29.08;;;21.40;99.90;;;;;;5070308;28;20127;-59
2022/07/11 06:56:13;;;;;;;41.90;28.77;;;22.40;99.90;;;;;;5070867;28;20120;-59
2022/07/11 06:58:38;;;;;;;36.47;25.63;;;23.70;99.90;;;;;;5075077;28;20117;-59
2022/07/11 07:01:05;;;;;;;36.90;25.90;;;24.50;99.90;;;;;;5074530;28;20024;-59
2022/07/11 07:03:34;;;;;;;35.25;25.23;;;25.70;99.90;;;;;;5073358;28;20017;-66
2022/07/11 07:06:01;;;;;;;35.17;27.50;;;26.30;99.90;;;;;;5074653;28;20029;-59
2022/07/11 07:08:28;;;;;;;42.42;28.05;;;26.90;99.90;;;;;;5074588;28;20086;-59
2022/07/11 07:10:54;;;;;;;37.40;27.45;;;27.40;99.90;;;;;;5074273;28;20497;-59
2022/07/11 07:13:23;;;;;;;34.78;25.55;;;26.90;99.90;;;;;;5074670;28;20054;-60
2022/07/11 07:15:49;;;;;;;36.08;23.40;;;27.30;99.90;;;;;;5074304;28;20491;-60
2022/07/11 07:18:15;;;;;;;34.45;23.73;;;27.60;99.90;;;;;;5074249;28;20048;-60
2022/07/11 07:20:41;;;;;;;32.90;23.23;;;27.80;99.90;;;;;;5074039;28;20095;-60
2022/07/11 07:23:07;;;;;;;23.58;17.65;;;28.30;99.90;;;;;;5074255;28;20036;-60
2022/07/11 07:25:33;;;;;;;24.70;17.67;;;29.10;98.40;;;;;;5074284;28;20116;-60
2022/07/11 07:27:59;;;;;;;28.02;17.98;;;28.90;98.20;;;;;;5074025;28;20471;-60
2022/07/11 07:30:25;;;;;;;25.63;19.17;;;28.60;98.50;;;;;;5074290;28;20036;-60
2022/07/11 07:32:51;;;;;;;26.23;18.13;;;28.60;98.90;;;;;;5074333;28;20036;-60
2022/07/11 07:35:16;;;;;;;26.70;19.20;;;28.50;99.40;;;;;;5074129;28;20466;-60
2022/07/11 07:37:42;;;;;;;16.33;12.02;;;29.20;98.20;;;;;;5074281;28;20060;-59
2022/07/11 07:40:08;;;;;;;21.33;12.73;;;29.90;95.20;;;;;;5073819;28;20024;-61
2022/07/11 07:42:34;;;;;;;27.35;15.95;;;30.50;93.50;;;;;;5074099;28;20069;-60
2022/07/11 07:44:59;;;;;;;24.52;16.95;;;30.30;93.90;;;;;;5073703;28;20016;-60
2022/07/11 07:47:25;;;;;;;29.08;17.02;;;30.10;94.10;;;;;;5073615;28;20028;-60
2022/07/11 07:49:51;;;;;;;24.67;14.55;;;30.30;94.00;;;;;;5074344;28;20028;-60
2022/07/11 07:52:17;;;;;;;28.88;17.45;;;30.10;93.90;;;;;;5073314;28;20045;-60
2022/07/11 07:54:42;;;;;;;23.88;15.65;;;30.00;94.00;;;;;;5073539;28;20020;-60
2022/07/11 07:57:08;;;;;;;28.60;17.65;;;30.00;93.20;;;;;;5073351;28;20035;-60
2022/07/11 07:59:34;;;;;;;26.95;16.55;;;29.80;93.60;;;;;;5073712;28;20087;-60
2022/07/11 08:01:59;;;;;;;25.23;16.27;;;29.80;94.10;;;;;;5073220;28;20040;-60
2022/07/11 08:04:25;;;;;;;24.85;16.23;;;30.10;93.70;;;;;;5073446;28;20076;-60
2022/07/11 08:06:51;;;;;;;29.42;17.17;;;30.10;93.10;;;;;;5073218;28;20404;-60
2022/07/11 08:09:16;;;;;;;27.08;16.00;;;30.80;92.30;;;;;;5072269;28;20036;-60
2022/07/11 08:11:42;;;;;;;25.75;16.33;;;31.20;91.20;;;;;;5073523;28;20089;-59
2022/07/11 08:14:08;;;;;;;24.83;15.07;;;31.10;90.80;;;;;;5073015;28;20039;-60
2022/07/11 08:16:34;;;;;;;25.77;16.45;;;31.10;90.60;;;;;;5073223;28;20074;-60
2022/07/11 08:19:03;;;;;;;28.98;17.17;;;31.30;90.70;;;;;;5073312;28;20044;-60
2022/07/11 08:21:29;;;;;;;31.15;19.05;;;31.70;90.70;;;;;;5073620;28;20115;-60
2022/07/11 08:23:56;;;;;;;21.85;12.82;;;32.80;88.00;;;;;;5071608;28;20021;-60
2022/07/11 08:26:21;;;;;;;19.45;10.60;;;31.70;89.40;;;;;;5073094;28;20032;-60
2022/07/11 08:28:47;;;;;;;22.30;12.85;;;30.00;91.40;;;;;;5073041;28;20103;-60
2022/07/11 08:31:13;;;;;;;21.65;12.65;;;29.50;92.50;;;;;;5073340;28;20024;-59
2022/07/11 08:33:38;;;;;;;18.58;10.23;;;30.00;92.40;;;;;;5072508;28;20029;-60
2022/07/11 08:36:06;;;;;;;15.07;8.98;;;30.00;92.20;;;;;;5072662;28;20035;-60
2022/07/11 08:38:32;;;;;;;16.52;9.18;;;30.00;91.60;;;;;;5071917;28;20035;-61
2022/07/11 08:40:57;;;;;;;15.75;10.48;;;30.00;91.20;;;;;;5072591;28;20100;-60
2022/07/11 08:43:28;;;;;;;17.23;10.23;;;30.10;91.50;;;;;;5072830;28;20473;-59
2022/07/11 08:45:55;;;;;;;15.70;9.63;;;29.90;92.10;;;;;;5071478;28;20460;-60
2022/07/11 08:48:21;;;;;;;12.48;8.18;;;30.20;91.70;;;;;;5072642;28;20044;-60
2022/07/11 08:50:48;;;;;;;14.10;8.43;;;30.60;91.20;;;;;;5072737;28;20131;-59
2022/07/11 08:53:14;;;;;;;10.77;8.65;;;31.40;90.20;;;;;;5071065;28;20060;-60
2022/07/11 08:55:40;;;;;;;12.73;9.02;;;31.70;88.30;;;;;;5072738;28;20050;-60
2022/07/11 08:58:07;;;;;;;12.50;9.43;;;31.70;88.10;;;;;;5072520;28;20078;-60
2022/07/11 09:00:33;;;;;;;13.38;9.65;;;32.20;87.30;;;;;;5072472;28;20485;-59
2022/07/11 09:03:01;;;;;;;13.48;9.40;;;31.20;88.00;;;;;;5072039;28;20081;-60
2022/07/11 09:05:28;;;;;;;13.55;8.63;;;31.00;89.20;;;;;;5072249;28;20154;-59
2022/07/11 09:07:53;;;;;;;11.07;9.20;;;30.60;89.90;;;;;;5072611;28;20025;-59
2022/07/11 09:10:19;;;;;;;14.05;9.48;;;30.00;90.70;;;;;;5072257;28;20500;-60
2022/07/11 09:13:04;;;;;;;15.27;8.88;;;30.60;90.30;;;;;;5072012;28;20044;-60
2022/07/11 09:15:40;;;;;;;9.60;8.10;;;31.10;89.50;;;;;;5054729;28;20028;-60
2022/07/11 09:18:26;;;;;;;12.63;8.52;;;31.20;88.20;;;;;;5072031;28;20036;-60
2022/07/11 09:26:33;;;;;;;7.57;6.00;;;31.80;86.80;;;;;;5072035;28;20035;-60
2022/07/11 09:29:12;;;;;;;8.75;4.70;;;32.90;84.00;;;;;;5071908;28;20036;-60
2022/07/11 09:31:40;;;;;;;6.38;5.47;;;33.30;80.80;;;;;;5070926;28;20507;-59
2022/07/11 09:34:14;;;;;;;8.32;6.95;;;33.30;79.50;;;;;;5071631;28;20033;-60
2022/07/11 09:36:42;;;;;;;7.32;6.50;;;33.10;80.50;;;;;;5070707;28;20028;-60
2022/07/11 09:39:16;;;;;;;8.38;6.50;;;32.10;83.00;;;;;;5071771;28;20506;-60
2022/07/11 09:41:42;;;;;;;10.18;6.80;;;32.30;82.50;;;;;;5071459;28;20107;-60
2022/07/11 09:44:12;;;;;;;6.25;5.57;;;32.60;80.20;;;;;;5071405;28;20059;-60
2022/07/11 09:46:39;;;;;;;9.07;4.80;;;32.30;79.50;;;;;;5071767;28;20032;-60
2022/07/11 09:49:06;;;;;;;4.85;4.10;;;32.60;79.60;;;;;;5071773;28;20024;-60
2022/07/11 09:51:33;;;;;;;4.70;3.95;;;32.50;78.40;;;;;;5071602;28;20059;-60
2022/07/11 09:53:59;;;;;;;6.05;4.45;;;32.80;77.80;;;;;;5071139;28;20101;-60
2022/07/11 09:56:37;;;;;;;5.82;4.78;;;31.80;81.30;;;;;;5071642;28;20028;-61
2022/07/11 09:59:04;;;;;;;6.13;4.60;;;32.30;80.00;;;;;;5071529;28;20021;-60
2022/07/11 10:01:31;;;;;;;6.82;4.78;;;32.70;79.20;;;;;;5071396;28;20030;-61
2022/07/11 10:03:58;;;;;;;7.03;4.95;;;32.10;80.00;;;;;;5071143;28;20433;-61
2022/07/11 10:06:24;;;;;;;9.55;5.40;;;32.10;80.40;;;;;;5071162;28;20107;-60
2022/07/11 10:08:53;;;;;;;5.50;4.05;;;31.70;81.70;;;;;;5069934;28;20528;-61
2022/07/11 10:11:20;;;;;;;4.40;3.45;;;31.90;81.10;;;;;;5071286;28;20481;-60
2022/07/11 10:13:46;;;;;;;5.07;3.75;;;31.80;79.40;;;;;;5070964;28;20037;-60
2022/07/11 10:16:26;;;;;;;5.95;4.50;;;31.60;81.10;;;;;;5069567;28;20529;-60
2022/07/11 10:19:36;;;;;;;7.03;4.20;;;32.00;81.30;;;;;;5071231;28;20035;-60
2022/07/11 10:22:09;;;;;;;5.65;3.97;;;33.40;76.50;;;;;;5058390;28;20028;-60
2022/07/11 10:24:53;;;;;;;4.22;3.53;;;32.10;78.50;;;;;;5071092;28;20043;-60
2022/07/11 10:27:42;;;;;;;4.25;3.72;;;31.40;80.50;;;;;;5071049;28;20328;-60
2022/07/11 10:30:07;;;;;;;6.00;3.33;;;31.50;80.00;;;;;;5070801;28;20020;-60
2022/07/11 10:33:00;;;;;;;6.10;4.18;;;32.00;79.10;;;;;;5070009;28;20401;-61
2022/07/11 10:35:29;;;;;;;3.75;2.90;;;31.70;78.90;;;;;;5070957;28;20458;-60
2022/07/11 10:37:55;;;;;;;5.65;3.88;;;32.40;76.50;;;;;;5071037;28;20025;-60
2022/07/11 10:40:48;;;;;;;6.00;3.40;;;32.50;76.70;;;;;;5071021;28;20473;-61
2022/07/11 10:43:38;;;;;;;4.70;3.40;;;32.90;75.90;;;;;;5070688;28;20384;-60
2022/07/11 10:46:08;;;;;;;5.30;3.60;;;32.70;75.60;;;;;;5070574;28;20031;-60
2022/07/11 10:48:51;;;;;;;5.57;4.50;;;32.70;75.00;;;;;;5071392;28;20115;-60
2022/07/11 10:51:24;;;;;;;6.60;3.90;;;32.90;75.40;;;;;;5070586;28;20051;-60
2022/07/11 10:53:51;;;;;;;5.32;4.63;;;33.50;75.40;;;;;;5070473;28;20048;-61
2022/07/11 10:56:29;;;;;;;6.80;4.50;;;32.80;76.30;;;;;;5070616;28;20374;-60
2022/07/11 10:59:13;;;;;;;5.88;3.83;;;32.30;77.40;;;;;;5070711;28;20036;-60
2022/07/11 11:02:03;;;;;;;5.60;3.78;;;32.80;74.90;;;;;;5071148;28;20096;-61
2022/07/11 11:04:41;;;;;;;5.07;4.20;;;33.30;74.40;;;;;;5071069;28;20025;-60
2022/07/11 11:07:40;;;;;;;4.45;4.03;;;33.20;73.50;;;;;;5070653;28;20028;-61
2022/07/11 11:10:18;;;;;;;7.25;4.47;;;32.70;74.70;;;;;;5070796;28;20382;-60
2022/07/11 11:13:06;;;;;;;17.63;7.95;;;32.60;74.10;;;;;;5070615;28;20039;-60
2022/07/11 11:15:43;;;;;;;6.13;5.53;;;33.50;72.30;;;;;;5070565;28;20039;-61
2022/07/11 11:18:24;;;;;;;7.55;5.10;;;34.00;71.70;;;;;;5069284;28;20477;-61
2022/07/11 11:21:01;;;;;;;8.02;4.43;;;34.60;69.60;;;;;;5070366;28;20021;-61
2022/07/11 11:23:31;;;;;;;4.50;4.10;;;34.50;69.70;;;;;;5070272;28;20103;-61
2022/07/11 11:26:05;;;;;;;8.48;5.60;;;34.30;68.10;;;;;;5070409;28;20393;-61
2022/07/11 11:28:31;;;;;;;6.47;5.18;;;33.30;71.10;;;;;;5070484;28;20037;-61
2022/07/11 11:31:01;;;;;;;6.30;4.75;;;33.60;71.40;;;;;;5070459;28;20402;-60
2022/07/11 11:33:29;;;;;;;5.68;5.05;;;34.30;70.80;;;;;;5070266;28;20032;-61
2022/07/11 11:36:19;;;;;;;7.05;6.05;;;34.00;70.00;;;;;;5070371;28;20042;-61
2022/07/11 11:38:48;;;;;;;7.35;6.18;;;33.40;71.30;;;;;;5067413;28;20044;-60
2022/07/11 11:41:23;;;;;;;9.63;6.40;;;33.20;70.50;;;;;;5070231;28;20078;-60
2022/07/11 11:43:49;;;;;;;8.20;6.63;;;33.10;70.90;;;;;;5073096;28;20033;-61
2022/07/11 11:46:28;;;;;;;7.38;6.68;;;32.70;71.40;;;;;;5073802;28;20035;-60
2022/07/11 11:48:58;;;;;;;6.38;5.78;;;33.60;70.90;;;;;;5074118;28;20028;-60
2022/07/11 11:51:24;;;;;;;8.80;8.02;;;34.00;70.60;;;;;;5073798;28;20086;-61
2022/07/11 11:53:57;;;;;;;8.85;7.60;;;33.80;69.90;;;;;;5073530;28;20048;-60
2022/07/11 11:56:30;;;;;;;8.18;6.28;;;35.10;69.10;;;;;;5073398;28;20028;-60
2022/07/11 11:59:03;;;;;;;8.27;6.93;;;35.60;67.10;;;;;;5073688;28;20485;-60
2022/07/11 12:01:31;;;;;;;8.75;7.97;;;34.50;67.40;;;;;;5072375;28;20029;-60
2022/07/11 12:03:59;;;;;;;7.45;6.72;;;34.50;69.20;;;;;;5073683;28;20445;-61
2022/07/11 12:06:35;;;;;;;7.47;6.78;;;34.30;69.20;;;;;;5073512;28;20029;-61
2022/07/11 12:09:09;;;;;;;7.88;6.40;;;34.10;68.90;;;;;;5073673;28;20389;-61
2022/07/11 12:11:35;;;;;;;8.13;7.28;;;34.90;68.70;;;;;;5073396;28;20025;-61
2022/07/11 12:14:06;;;;;;;8.00;7.30;;;35.20;67.20;;;;;;5073116;28;20039;-61
2022/07/11 12:16:41;;;;;;;8.97;8.10;;;34.40;68.20;;;;;;5073582;28;20524;-61
2022/07/11 12:19:11;;;;;;;10.07;7.13;;;32.80;69.80;;;;;;5073240;28;20508;-61
2022/07/11 12:21:38;;;;;;;8.65;7.85;;;32.50;72.20;;;;;;5073439;28;20389;-61
2022/07/11 12:24:22;;;;;;;8.40;7.53;;;33.70;69.50;;;;;;5073038;28;20158;-61
2022/07/11 12:26:49;;;;;;;6.97;5.80;;;33.70;68.70;;;;;;5072024;28;20044;-61
2022/07/11 12:29:19;;;;;;;7.20;6.47;;;34.30;68.80;;;;;;5073346;28;20040;-59
2022/07/11 12:32:01;;;;;;;7.95;7.25;;;33.60;68.80;;;;;;5073595;28;20397;-61
2022/07/11 12:34:27;;;;;;;;;;;32.00;71.50;;;;;;5073655;28;20029;-61
2022/07/11 12:37:08;;;;;;;10.13;9.13;;;32.20;72.50;;;;;;5073312;28;20353;-61
2022/07/11 12:39:38;;;;;;;7.70;6.93;;;32.90;72.20;;;;;;5073182;28;20032;-60
2022/07/11 12:42:22;;;;;;;8.35;6.60;;;33.30;71.10;;;;;;5073335;28;20020;-61
2022/07/11 12:44:59;;;;;;;7.55;6.55;;;33.20;69.60;;;;;;5073226;28;20028;-61